Time;durP1;ratioP1;P1;durP2;ratioP2;P2;SDS_P1;SDS_P2;PMS_P1;PMS_P2;Temp;Humidity;BMP_temperature;BMP_pressure;BME280_temperature;BME280_humidity;BME280_pressure;Samples;Min_cycle;Max_cycle;Signal;HPM_P1;HPM_P2
2022/08/08 00:01:33;;;;;;;1.00;0.90;;;;;;;18.31;50.93;98620.50;5012599;28;20110;-86
2022/08/08 00:04:40;;;;;;;1.10;1.10;;;;;;;18.32;48.86;98616.81;5005918;28;20073;-86
2022/08/08 00:07:24;;;;;;;1.38;1.00;;;;;;;18.41;48.61;98614.56;5012076;28;20050;-86
2022/08/08 00:10:21;;;;;;;0.90;0.90;;;;;;;18.42;47.84;98616.19;5011794;28;20042;-86
2022/08/08 00:13:20;;;;;;;1.10;1.10;;;;;;;18.34;47.09;98617.38;4974340;28;20046;-86
2022/08/08 00:16:21;;;;;;;0.93;0.93;;;;;;;18.28;48.48;98614.84;4979869;28;20132;-87
2022/08/08 00:19:21;;;;;;;1.00;1.00;;;;;;;18.37;49.34;98624.88;5012903;28;20042;-86
2022/08/08 00:22:01;;;;;;;1.15;0.90;;;;;;;18.38;49.97;98625.69;4988734;28;20050;-86
2022/08/08 00:24:39;;;;;;;1.35;1.10;;;;;;;18.40;48.97;98621.72;5010429;28;20795;-87
2022/08/08 00:27:10;;;;;;;1.00;0.90;;;;;;;18.16;48.36;98604.28;5012328;28;20456;-87
2022/08/08 00:29:50;;;;;;;1.30;1.23;;;;;;;18.06;46.72;98622.69;5011395;28;20038;-87
2022/08/08 00:32:29;;;;;;;1.55;1.33;;;;;;;17.69;47.15;98624.75;5008972;28;20453;-87
2022/08/08 00:36:06;;;;;;;1.30;1.20;;;;;;;17.63;47.83;98629.16;5012195;28;20537;-87
2022/08/08 00:39:10;;;;;;;1.30;1.20;;;;;;;17.61;49.71;98615.31;4993887;28;20042;-87
2022/08/08 00:42:31;;;;;;;1.00;1.00;;;;;;;17.75;53.13;98630.00;5008858;28;20058;-87
2022/08/08 00:45:42;;;;;;;2.25;1.10;;;;;;;17.89;50.52;98618.09;4994043;28;20516;-86
2022/08/08 00:49:01;;;;;;;1.33;1.23;;;;;;;17.63;48.87;98622.03;4978647;28;20450;-87
2022/08/08 00:52:02;;;;;;;0.80;0.80;;;;;;;17.50;48.99;98624.09;4978324;28;20718;-88
2022/08/08 00:55:02;;;;;;;;;;;;;;;17.50;49.09;98624.09;4974153;28;20207;-87
2022/08/08 00:57:47;;;;;;;1.10;1.10;;;;;;;17.47;49.14;98611.31;5006433;28;19925;-85
2022/08/08 01:01:04;;;;;;;1.48;1.13;;;;;;;17.29;49.52;98612.22;5003051;28;20070;-86
2022/08/08 01:04:11;;;;;;;1.23;1.10;;;;;;;17.29;49.93;98613.03;4973290;28;20050;-86
2022/08/08 01:07:37;;;;;;;0.90;0.90;;;;;;;17.35;50.73;98606.81;4972681;28;20451;-87
2022/08/08 01:10:57;;;;;;;;;;;;;;;17.43;50.04;98612.78;4986629;28;20050;-87
2022/08/08 01:13:53;;;;;;;1.45;1.25;;;;;;;17.21;51.11;98604.59;4993617;28;19929;-88
2022/08/08 01:16:45;;;;;;;1.17;1.10;;;;;;;17.09;51.44;98615.19;5012300;28;20497;-87
2022/08/08 01:19:42;;;;;;;1.17;1.08;;;;;;;17.04;51.42;98601.84;5006576;28;20042;-87
2022/08/08 01:22:58;;;;;;;1.83;1.20;;;;;;;16.92;50.49;98611.63;4977322;28;20736;-87
2022/08/08 01:26:15;;;;;;;1.20;1.05;;;;;;;16.81;51.90;98616.66;4972602;28;20474;-87
2022/08/08 01:29:09;;;;;;;1.10;1.02;;;;;;;16.78;51.87;98611.78;4988498;28;20069;-87
2022/08/08 01:31:55;;;;;;;1.23;1.13;;;;;;;16.87;51.09;98614.13;4994306;28;20049;-86
2022/08/08 01:35:14;;;;;;;1.48;1.38;;;;;;;16.74;52.08;98610.66;5011474;28;20511;-87
2022/08/08 01:38:21;;;;;;;1.20;1.10;;;;;;;16.67;51.59;98612.53;5004595;28;20046;-86
2022/08/08 01:41:34;;;;;;;1.38;1.27;;;;;;;16.58;52.00;98613.91;5007304;28;20041;-87
2022/08/08 01:44:47;;;;;;;1.48;1.40;;;;;;;16.47;53.17;98617.31;4993262;28;20101;-88
2022/08/08 01:47:55;;;;;;;1.30;1.20;;;;;;;16.44;53.14;98615.13;4984879;28;20045;-87
2022/08/08 01:51:07;;;;;;;1.55;1.35;;;;;;;16.14;54.41;98600.03;5008555;28;20045;-86
2022/08/08 01:54:08;;;;;;;1.60;1.50;;;;;;;16.05;55.22;98618.03;4990971;28;20046;-85
2022/08/08 01:57:25;;;;;;;1.43;1.33;;;;;;;16.13;55.16;98619.56;4996489;28;20085;-86
2022/08/08 02:00:18;;;;;;;2.35;1.80;;;;;;;15.95;56.13;98619.59;5010833;28;20392;-86
2022/08/08 02:03:27;;;;;;;1.30;1.25;;;;;;;15.99;55.93;98621.56;5009675;28;20400;-86
2022/08/08 02:06:33;;;;;;;1.60;1.50;;;;;;;15.85;56.25;98616.66;5006013;28;20133;-84
2022/08/08 02:09:06;;;;;;;1.50;1.40;;;;;;;15.82;56.34;98611.81;5013037;28;20133;-84
2022/08/08 02:11:45;;;;;;;1.42;1.33;;;;;;;15.80;56.33;98622.63;5014304;28;20124;-84
2022/08/08 02:14:40;;;;;;;1.50;1.30;;;;;;;15.79;56.94;98613.88;5013064;28;20046;-84
2022/08/08 02:18:00;;;;;;;1.35;1.30;;;;;;;16.06;56.16;98624.13;5014296;28;20104;-84
2022/08/08 02:22:30;;;;;;;1.20;1.10;;;;;;;16.16;56.92;98608.56;5014170;28;20034;-84
2022/08/08 02:24:04;;;;;;;1.10;1.00;;;;;;;16.27;54.44;98602.50;5013993;28;20045;-84
2022/08/08 02:26:48;;;;;;;1.20;1.20;;;;;;;16.44;55.45;98609.84;5014210;28;20049;-85
2022/08/08 02:29:37;;;;;;;1.92;1.13;;;;;;;16.39;55.99;98609.69;4996454;28;20125;-85
2022/08/08 02:32:46;;;;;;;1.10;1.10;;;;;;;16.51;56.70;98611.34;4990638;28;20046;-85
2022/08/08 02:35:59;;;;;;;1.40;1.30;;;;;;;16.53;56.10;98613.78;4991384;28;20125;-85
2022/08/08 02:38:42;;;;;;;1.30;1.20;;;;;;;16.10;55.09;98614.75;4974571;28;20058;-86
2022/08/08 02:42:14;;;;;;;1.65;1.40;;;;;;;15.75;55.58;98611.88;5005096;28;20121;-86
2022/08/08 02:45:58;;;;;;;1.60;1.50;;;;;;;15.43;56.93;98606.69;4996269;28;20054;-86
2022/08/08 02:48:57;;;;;;;1.30;1.20;;;;;;;15.40;56.75;98603.66;5013999;28;20060;-86
2022/08/08 02:52:09;;;;;;;1.50;1.30;;;;;;;15.62;56.69;98612.84;4981191;28;20545;-86
2022/08/08 02:55:21;;;;;;;1.15;1.15;;;;;;;15.66;56.48;98602.63;5013690;28;20042;-86
2022/08/08 02:58:31;;;;;;;1.55;1.45;;;;;;;15.56;56.33;98611.03;5001811;28;20133;-86
2022/08/08 03:01:50;;;;;;;1.33;1.23;;;;;;;15.60;57.33;98609.59;5008522;28;20038;-86
2022/08/08 03:04:57;;;;;;;1.42;1.33;;;;;;;15.52;57.33;98615.94;5014323;28;20056;-85
2022/08/08 03:08:09;;;;;;;1.63;1.52;;;;;;;15.22;57.89;98613.16;4995518;28;20046;-86
2022/08/08 03:11:27;;;;;;;1.75;1.40;;;;;;;15.22;58.25;98618.47;4993469;28;20034;-86
2022/08/08 03:14:40;;;;;;;1.67;1.58;;;;;;;15.10;58.44;98629.94;5006729;28;20046;-86
2022/08/08 03:17:52;;;;;;;1.98;1.52;;;;;;;14.98;59.12;98630.63;5005321;28;20049;-86
2022/08/08 03:20:41;;;;;;;1.70;1.60;;;;;;;14.94;58.65;98632.09;4972283;28;20066;-86
2022/08/08 03:23:13;;;;;;;1.60;1.50;;;;;;;14.81;59.10;98634.00;4974896;28;20050;-86
2022/08/08 03:25:45;;;;;;;1.77;1.67;;;;;;;14.76;59.60;98641.78;5007702;28;21159;-87
2022/08/08 03:28:19;;;;;;;1.58;1.48;;;;;;;14.70;59.57;98641.63;5000575;28;20042;-86
2022/08/08 03:30:47;;;;;;;1.98;1.60;;;;;;;14.58;59.06;98638.03;4994228;28;20108;-86
2022/08/08 03:33:33;;;;;;;1.20;1.20;;;;;;;14.63;59.77;98645.28;5009440;28;20096;-85
2022/08/08 03:36:20;;;;;;;1.58;1.48;;;;;;;14.68;59.78;98641.00;5005950;28;20073;-88
2022/08/08 03:38:53;;;;;;;1.85;1.48;;;;;;;14.72;59.52;98639.56;5003473;28;20047;-86
2022/08/08 03:41:42;;;;;;;1.98;1.45;;;;;;;14.71;59.86;98648.50;4993481;28;20046;-85
2022/08/08 03:44:33;;;;;;;1.70;1.60;;;;;;;14.69;60.10;98650.56;5012783;28;20136;-86
2022/08/08 03:47:01;;;;;;;1.40;1.30;;;;;;;14.92;61.34;98659.75;4997709;28;20066;-86
2022/08/08 03:49:47;;;;;;;1.60;1.50;;;;;;;14.80;59.67;98651.69;4995533;28;20482;-86
2022/08/08 03:52:30;;;;;;;2.45;1.70;;;;;;;14.60;59.64;98645.72;5013211;28;20054;-87
2022/08/08 03:55:00;;;;;;;1.80;1.70;;;;;;;14.49;60.46;98655.13;4985238;28;20050;-85
2022/08/08 03:57:37;;;;;;;2.42;1.60;;;;;;;14.39;59.79;98646.81;5009667;28;20065;-86
2022/08/08 04:00:28;;;;;;;2.00;1.80;;;;;;;14.27;60.16;98656.41;5011816;28;20470;-86
2022/08/08 04:03:07;;;;;;;1.90;1.50;;;;;;;14.24;60.58;98659.47;5012719;28;20099;-86
2022/08/08 04:05:37;;;;;;;1.48;1.38;;;;;;;14.21;61.17;98663.31;5013257;28;20042;-86
2022/08/08 04:08:22;;;;;;;1.58;1.40;;;;;;;14.31;61.05;98663.69;5006616;28;20042;-86
2022/08/08 04:11:04;;;;;;;1.40;1.30;;;;;;;14.35;61.33;98669.38;5001965;28;20045;-85
2022/08/08 04:13:43;;;;;;;1.50;1.40;;;;;;;14.41;61.49;98671.97;4996649;28;20038;-86
2022/08/08 04:16:30;;;;;;;2.40;1.50;;;;;;;14.42;60.68;98662.22;4998585;28;20058;-86
2022/08/08 04:19:08;;;;;;;1.42;1.33;;;;;;;14.37;60.83;98683.97;4993573;28;20041;-85
2022/08/08 04:21:49;;;;;;;1.52;1.42;;;;;;;14.57;62.54;98675.97;4987295;28;20050;-86
2022/08/08 04:24:16;;;;;;;1.63;1.40;;;;;;;14.78;63.70;98674.06;5008860;28;20095;-85
2022/08/08 04:26:54;;;;;;;1.48;1.38;;;;;;;14.99;62.36;98678.97;5002100;28;20088;-85
2022/08/08 04:29:23;;;;;;;1.50;1.40;;;;;;;15.11;62.33;98679.91;5011083;28;20045;-85
2022/08/08 04:31:50;;;;;;;1.55;1.45;;;;;;;15.21;61.86;98680.25;4996123;28;20482;-85
2022/08/08 04:34:26;;;;;;;1.95;1.60;;;;;;;15.32;61.79;98686.69;4997744;28;20181;-85
2022/08/08 04:37:09;;;;;;;1.73;1.63;;;;;;;15.35;61.21;98688.06;5001463;28;20042;-86
2022/08/08 04:39:39;;;;;;;1.58;1.48;;;;;;;15.39;61.64;98692.72;4975864;28;20066;-85
2022/08/08 04:42:32;;;;;;;1.40;1.30;;;;;;;15.27;58.99;98684.69;5004889;28;20038;-85
2022/08/08 04:45:06;;;;;;;1.40;1.30;;;;;;;15.19;59.52;98682.31;5010746;28;20050;-85
2022/08/08 04:47:34;;;;;;;1.40;1.30;;;;;;;15.31;61.78;98694.84;5012051;28;20045;-85
2022/08/08 04:50:09;;;;;;;1.40;1.30;;;;;;;15.37;61.45;98699.25;5005708;28;20077;-86
2022/08/08 04:52:54;;;;;;;1.40;1.30;;;;;;;15.48;61.10;98703.84;5005361;28;20055;-86
2022/08/08 04:55:25;;;;;;;1.42;1.33;;;;;;;15.57;61.93;98704.38;5005056;28;20038;-86
2022/08/08 04:58:13;;;;;;;1.50;1.40;;;;;;;15.57;62.13;98715.75;4999331;28;20054;-85
2022/08/08 05:00:43;;;;;;;1.55;1.45;;;;;;;15.39;60.11;98715.69;4992508;28;20057;-86
2022/08/08 05:03:13;;;;;;;1.98;1.88;;;;;;;15.14;61.43;98705.94;4984143;28;20050;-86
2022/08/08 05:06:00;;;;;;;1.27;1.20;;;;;;;14.91;61.09;98711.75;4988202;28;20050;-86
2022/08/08 05:08:39;;;;;;;1.45;1.35;;;;;;;15.10;62.44;98722.41;4992475;28;20077;-84
2022/08/08 05:11:08;;;;;;;1.42;1.27;;;;;;;15.18;63.31;98714.25;4996379;28;20054;-83
2022/08/08 05:13:35;;;;;;;1.55;1.45;;;;;;;15.33;63.30;98713.91;5001655;28;20049;-84
2022/08/08 05:16:22;;;;;;;1.60;1.50;;;;;;;15.50;63.18;98722.94;5007039;28;20343;-84
2022/08/08 05:19:12;;;;;;;1.70;1.60;;;;;;;15.45;61.96;98714.84;4991686;28;20052;-84
2022/08/08 05:21:59;;;;;;;1.60;1.50;;;;;;;15.44;60.91;98723.81;5004410;28;20129;-84
2022/08/08 05:24:26;;;;;;;1.60;1.50;;;;;;;15.18;60.46;98730.91;5012144;28;20399;-84
2022/08/08 05:26:57;;;;;;;1.40;1.30;;;;;;;15.25;62.30;98723.75;5011185;28;20076;-84
2022/08/08 05:29:25;;;;;;;1.42;1.33;;;;;;;15.26;61.00;98728.00;5010936;28;20042;-84
2022/08/08 05:31:55;;;;;;;1.27;1.17;;;;;;;15.46;60.88;98734.97;4973028;28;20045;-84
2022/08/08 05:34:42;;;;;;;1.40;1.30;;;;;;;15.61;62.94;98730.16;4991684;28;20041;-84
2022/08/08 05:37:15;;;;;;;1.27;1.17;;;;;;;15.84;60.82;98734.09;4990170;28;20049;-84
2022/08/08 05:39:49;;;;;;;1.85;1.50;;;;;;;15.94;63.22;98732.53;4991619;28;20050;-84
2022/08/08 05:42:35;;;;;;;1.80;1.70;;;;;;;16.04;63.42;98739.97;5010816;28;20100;-83
2022/08/08 05:45:03;;;;;;;1.58;1.30;;;;;;;16.05;60.10;98736.31;5011390;28;20046;-84
2022/08/08 05:47:50;;;;;;;1.50;1.40;;;;;;;16.11;60.90;98746.00;4982056;28;20389;-84
2022/08/08 05:50:28;;;;;;;1.85;1.75;;;;;;;16.24;58.85;98750.34;5006644;28;20049;-84
2022/08/08 05:52:59;;;;;;;1.67;1.42;;;;;;;16.42;62.19;98744.25;5011379;28;20127;-85
2022/08/08 05:55:48;;;;;;;1.80;1.70;;;;;;;16.62;61.92;98744.84;5003627;28;20494;-84
2022/08/08 05:58:41;;;;;;;1.70;1.60;;;;;;;16.75;61.30;98744.69;4999780;28;20078;-84
2022/08/08 06:01:26;;;;;;;1.70;1.60;;;;;;;16.83;58.82;98747.03;5008998;28;20466;-83
2022/08/08 06:04:13;;;;;;;1.50;1.40;;;;;;;16.88;58.32;98743.72;4992011;28;20069;-83
2022/08/08 06:06:56;;;;;;;2.08;1.50;;;;;;;17.03;59.55;98745.94;5006861;28;20128;-83
2022/08/08 06:09:33;;;;;;;2.08;1.70;;;;;;;17.06;58.47;98751.63;4975998;28;20047;-86
2022/08/08 06:12:20;;;;;;;2.47;2.00;;;;;;;17.07;56.87;98752.44;4979767;28;20484;-87
2022/08/08 06:15:00;;;;;;;2.17;1.70;;;;;;;17.10;58.77;98752.00;4976644;28;20070;-86
2022/08/08 06:17:38;;;;;;;2.17;1.70;;;;;;;17.16;58.64;98745.78;4976222;28;20043;-87
2022/08/08 06:20:25;;;;;;;1.85;1.67;;;;;;;17.37;59.22;98755.84;4975535;28;20070;-86
2022/08/08 06:22:54;;;;;;;2.08;1.90;;;;;;;17.39;57.72;98753.81;4975178;28;20043;-86
2022/08/08 06:25:23;;;;;;;1.95;1.77;;;;;;;17.52;56.01;98754.63;4994337;28;20070;-87
2022/08/08 06:28:22;;;;;;;2.15;1.65;;;;;;;17.75;56.07;98767.97;4994076;28;20058;-88
2022/08/08 06:31:00;;;;;;;2.13;1.52;;;;;;;17.79;56.98;98763.78;4975618;28;20042;-86
2022/08/08 06:33:39;;;;;;;1.58;1.48;;;;;;;18.00;57.63;98770.38;4977362;28;20469;-85
2022/08/08 06:36:39;;;;;;;1.73;1.60;;;;;;;18.27;55.52;98765.38;4994366;28;20052;-86
2022/08/08 06:39:20;;;;;;;2.03;1.40;;;;;;;18.43;56.54;98762.03;4976586;28;20075;-86
2022/08/08 06:42:01;;;;;;;2.00;1.80;;;;;;;18.54;54.15;98765.72;4974493;28;20046;-87
2022/08/08 06:44:29;;;;;;;;;;;;;;;18.70;54.45;98774.81;4995239;28;20048;-85
2022/08/08 06:46:57;;;;;;;2.38;1.58;;;;;;;18.77;55.88;98772.81;5015870;28;19922;-86
2022/08/08 06:49:27;;;;;;;2.28;1.55;;;;;;;18.91;53.64;98757.41;4999153;28;20053;-86
2022/08/08 06:52:15;;;;;;;1.38;1.27;;;;;;;19.19;54.11;98764.56;5016342;28;20042;-85
2022/08/08 06:54:44;;;;;;;1.52;1.35;;;;;;;19.34;53.17;98761.38;5015598;28;20105;-84
2022/08/08 06:57:14;;;;;;;1.90;1.30;;;;;;;19.52;52.05;98759.28;4992845;28;20050;-86
2022/08/08 06:59:42;;;;;;;1.60;1.25;;;;;;;19.71;51.76;98761.75;4996054;28;20076;-87
2022/08/08 07:02:33;;;;;;;2.03;1.30;;;;;;;19.96;52.71;98769.31;4995151;28;20126;-85
2022/08/08 07:05:07;;;;;;;1.30;1.23;;;;;;;20.18;53.08;98756.03;5008012;28;20652;-85
2022/08/08 07:07:51;;;;;;;2.15;1.25;;;;;;;20.40;49.54;98764.88;4999867;28;20084;-85
2022/08/08 07:10:24;;;;;;;1.50;1.40;;;;;;;20.52;48.91;98770.13;4996753;28;20138;-86
2022/08/08 07:13:01;;;;;;;1.90;1.40;;;;;;;20.64;49.32;98759.34;4975602;28;20082;-86
2022/08/08 07:15:50;;;;;;;1.27;1.10;;;;;;;20.81;47.79;98765.38;4999214;28;20050;-86
2022/08/08 07:19:17;;;;;;;1.88;1.20;;;;;;;20.97;47.46;98764.50;4979746;28;20042;-86
2022/08/08 07:21:56;;;;;;;1.23;1.13;;;;;;;21.04;46.90;98758.97;4993850;28;20053;-86
2022/08/08 07:24:49;;;;;;;2.08;1.30;;;;;;;21.24;46.52;98763.72;5010654;28;20046;-87
2022/08/08 07:27:25;;;;;;;1.25;1.00;;;;;;;21.34;47.19;98769.16;4979775;28;20073;-87
2022/08/08 07:30:13;;;;;;;1.10;1.10;;;;;;;21.46;46.16;98769.78;4991346;28;20049;-91
2022/08/08 07:32:48;;;;;;;1.70;1.00;;;;;;;21.61;48.66;98759.25;5006012;28;20132;-89
2022/08/08 07:35:16;;;;;;;1.40;1.30;;;;;;;21.68;45.49;98774.25;5013780;28;20050;-87
2022/08/08 07:37:45;;;;;;;1.35;1.20;;;;;;;21.75;48.54;98770.31;5012084;28;20050;-89
2022/08/08 07:40:32;;;;;;;1.20;1.10;;;;;;;21.94;49.53;98768.03;4997138;28;20049;-89
2022/08/08 07:43:04;;;;;;;1.20;1.10;;;;;;;22.19;47.70;98775.44;4998559;28;20129;-88
2022/08/08 07:45:37;;;;;;;4.10;1.10;;;;;;;22.33;44.78;98775.78;5001580;28;20042;-90
2022/08/08 07:48:24;;;;;;;1.90;1.33;;;;;;;22.44;44.00;98780.94;4961261;28;20046;-88
2022/08/08 07:50:59;;;;;;;1.25;1.15;;;;;;;22.50;47.44;98776.41;5005922;28;20042;-85
2022/08/08 07:53:43;;;;;;;1.23;1.20;;;;;;;22.65;43.65;98779.13;4997592;28;20061;-86
2022/08/08 07:56:40;;;;;;;1.30;1.20;;;;;;;22.77;44.36;98778.09;4975877;28;20049;-89
2022/08/08 07:59:13;;;;;;;1.33;1.10;;;;;;;22.89;44.19;98776.03;5010735;28;20077;-87
2022/08/08 08:01:55;;;;;;;1.00;1.00;;;;;;;23.16;42.80;98778.53;4973464;28;20050;-86
2022/08/08 08:04:45;;;;;;;1.30;1.20;;;;;;;23.33;42.02;98789.81;4987997;28;20042;-90
2022/08/08 08:07:21;;;;;;;1.52;1.00;;;;;;;23.42;42.51;98777.47;4997948;28;20049;-89
2022/08/08 08:10:04;;;;;;;1.23;1.10;;;;;;;23.60;42.33;98784.19;4993618;28;20382;-87
2022/08/08 08:12:43;;;;;;;1.13;1.10;;;;;;;23.73;40.86;98777.53;4998061;28;20041;-86
2022/08/08 08:15:18;;;;;;;1.75;1.40;;;;;;;23.53;40.79;98764.91;4995543;28;20046;-86
2022/08/08 08:17:52;;;;;;;1.42;1.20;;;;;;;23.71;41.87;98775.13;5011513;28;20125;-88
2022/08/08 08:20:28;;;;;;;1.40;1.27;;;;;;;23.89;41.08;98771.09;5010884;28;20133;-87
2022/08/08 08:22:56;;;;;;;1.55;1.20;;;;;;;24.00;41.25;98777.25;4999208;28;20034;-91
2022/08/08 08:25:23;;;;;;;2.72;1.15;;;;;;;24.10;40.31;98765.69;4983450;28;20112;-90
2022/08/08 08:28:09;;;;;;;1.20;1.13;;;;;;;24.19;42.24;98775.59;4991754;28;20481;-85
2022/08/08 08:30:47;;;;;;;2.35;1.20;;;;;;;24.12;39.48;98772.41;5011768;28;20474;-87
2022/08/08 08:33:14;;;;;;;1.73;1.20;;;;;;;24.10;41.20;98773.72;4999676;28;20061;-85
2022/08/08 08:35:40;;;;;;;1.33;1.05;;;;;;;24.38;40.16;98767.00;4997178;28;20096;-86
2022/08/08 08:38:28;;;;;;;1.85;1.00;;;;;;;24.52;39.40;98762.63;4998720;28;20065;-87
2022/08/08 08:40:59;;;;;;;1.10;1.10;;;;;;;24.57;39.65;98770.66;4999920;28;20496;-85
2022/08/08 08:43:31;;;;;;;1.58;1.10;;;;;;;24.74;39.31;98771.13;5011872;28;20057;-87
2022/08/08 08:45:59;;;;;;;1.40;1.10;;;;;;;24.75;38.65;98764.69;5012982;28;20503;-89
2022/08/08 08:48:31;;;;;;;1.38;1.13;;;;;;;24.89;38.14;98769.44;5012877;28;20050;-88
2022/08/08 08:51:01;;;;;;;1.35;0.90;;;;;;;24.96;37.10;98765.41;5006818;28;20545;-83
2022/08/08 08:53:35;;;;;;;2.28;1.25;;;;;;;24.80;36.53;98753.94;4983554;28;20058;-87
2022/08/08 08:56:24;;;;;;;2.10;1.00;;;;;;;24.96;38.22;98761.91;4995787;28;20046;-85
2022/08/08 08:58:57;;;;;;;2.03;1.00;;;;;;;25.22;39.84;98762.56;4996704;28;20050;-87
2022/08/08 09:01:33;;;;;;;1.30;0.90;;;;;;;25.35;36.75;98754.69;5001590;28;20038;-91
2022/08/08 09:04:25;;;;;;;3.15;1.33;;;;;;;25.48;36.27;98758.59;5003688;28;20046;-89
2022/08/08 09:07:01;;;;;;;1.58;1.10;;;;;;;25.73;34.07;98765.72;4994429;28;20120;-86
2022/08/08 09:09:40;;;;;;;0.90;0.90;;;;;;;25.82;33.06;98772.06;5007808;28;20046;-85
2022/08/08 09:12:43;;;;;;;1.60;1.10;;;;;;;25.67;32.60;98766.81;4985250;28;20117;-87
2022/08/08 09:15:15;;;;;;;1.40;0.90;;;;;;;25.77;31.32;98774.78;5005490;28;20413;-84
2022/08/08 09:18:03;;;;;;;2.05;1.05;;;;;;;25.88;29.28;98776.31;5001098;28;20061;-86
2022/08/08 09:20:32;;;;;;;1.10;0.90;;;;;;;25.82;30.37;98764.00;5013644;28;20046;-85
2022/08/08 09:23:20;;;;;;;3.33;1.00;;;;;;;25.72;29.43;98766.75;5015041;28;20052;-88
2022/08/08 09:26:08;;;;;;;1.52;1.08;;;;;;;25.75;30.69;98766.22;5011901;28;20108;-90
2022/08/08 09:28:40;;;;;;;1.30;0.82;;;;;;;25.82;31.20;98753.25;5002439;28;20057;-89
2022/08/08 09:31:27;;;;;;;0.93;0.90;;;;;;;26.10;31.56;98775.03;5010030;28;20070;-86
2022/08/08 09:34:19;;;;;;;0.70;0.70;;;;;;;26.26;30.36;98779.16;4995328;28;20432;-86
2022/08/08 09:37:08;;;;;;;1.00;0.90;;;;;;;26.32;28.45;98772.63;4992649;28;20043;-87
2022/08/08 09:40:08;;;;;;;2.60;0.90;;;;;;;26.34;28.56;98775.84;4993273;28;20053;-87
2022/08/08 09:42:42;;;;;;;1.13;1.00;;;;;;;26.03;27.87;98771.84;5009908;28;20111;-86
2022/08/08 09:45:31;;;;;;;1.40;0.90;;;;;;;26.13;28.54;98763.69;4994384;28;20050;-84
2022/08/08 09:48:18;;;;;;;1.40;1.00;;;;;;;26.23;28.47;98758.22;5005681;28;20056;-84
2022/08/08 09:51:02;;;;;;;1.83;0.80;;;;;;;26.21;28.88;98760.41;5013327;28;20441;-88
2022/08/08 09:53:40;;;;;;;;;;;;;;;26.47;31.01;98768.22;4991552;28;20057;-84
2022/08/08 09:56:41;;;;;;;0.90;0.90;;;;;;;26.52;30.66;98755.50;5003418;28;19990;-84
2022/08/08 09:59:24;;;;;;;0.98;0.82;;;;;;;26.61;29.07;98752.97;5001186;28;20085;-84
2022/08/08 10:02:27;;;;;;;1.20;1.00;;;;;;;26.47;28.05;98754.75;4973162;28;20042;-87
2022/08/08 10:05:05;;;;;;;1.08;1.00;;;;;;;26.44;29.95;98758.00;4971995;28;20043;-85
2022/08/08 10:07:50;;;;;;;1.20;1.10;;;;;;;26.44;29.21;98761.50;4996983;28;20141;-88
2022/08/08 10:10:35;;;;;;;0.95;0.80;;;;;;;26.48;28.75;98753.66;5004376;28;20382;-87
2022/08/08 10:13:29;;;;;;;0.80;0.80;;;;;;;26.73;30.32;98739.09;5002653;28;20413;-84
2022/08/08 10:16:21;;;;;;;0.90;0.90;;;;;;;26.85;29.13;98745.63;5011240;28;20053;-85
2022/08/08 10:19:10;;;;;;;1.30;0.90;;;;;;;26.87;29.13;98746.16;5009894;28;20073;-85
2022/08/08 10:21:38;;;;;;;0.95;0.95;;;;;;;26.85;29.10;98742.94;4999208;28;20425;-84
2022/08/08 10:24:17;;;;;;;0.80;0.80;;;;;;;27.03;30.71;98737.88;5008357;28;20080;-83
2022/08/08 10:27:03;;;;;;;0.90;0.90;;;;;;;27.03;28.08;98744.03;4997139;28;20544;-87
2022/08/08 10:30:01;;;;;;;0.80;0.80;;;;;;;27.19;29.53;98739.28;4972391;28;20050;-88
2022/08/08 10:32:34;;;;;;;1.05;0.90;;;;;;;27.15;29.96;98736.34;4994200;28;20049;-87
2022/08/08 10:35:16;;;;;;;0.88;0.88;;;;;;;27.14;27.09;98739.34;4991452;28;20557;-86
2022/08/08 10:38:08;;;;;;;1.60;1.10;;;;;;;26.86;27.62;98739.16;5007546;28;20049;-86
2022/08/08 10:40:41;;;;;;;1.67;1.08;;;;;;;26.93;28.61;98726.16;5009033;28;20053;-85
2022/08/08 10:43:10;;;;;;;1.23;0.90;;;;;;;27.06;27.73;98726.56;4997498;28;20066;-85
2022/08/08 10:45:46;;;;;;;2.05;1.00;;;;;;;27.24;28.10;98733.00;4998175;28;20050;-86
2022/08/08 10:48:32;;;;;;;1.08;0.90;;;;;;;27.11;28.03;98727.28;5002290;28;20057;-86
2022/08/08 10:51:37;;;;;;;1.35;0.88;;;;;;;27.16;29.94;98732.56;4992104;28;20050;-87
2022/08/08 10:54:22;;;;;;;1.48;0.90;;;;;;;27.13;28.48;98719.69;5009841;28;20045;-83
2022/08/08 10:57:03;;;;;;;1.10;1.00;;;;;;;27.35;27.59;98729.88;4989034;28;20042;-84
2022/08/08 10:59:31;;;;;;;1.40;1.10;;;;;;;27.18;29.75;98724.22;5000881;28;20390;-86
2022/08/08 11:02:07;;;;;;;1.38;1.08;;;;;;;27.27;27.79;98733.22;4979384;28;20046;-86
2022/08/08 11:04:45;;;;;;;1.27;1.13;;;;;;;27.18;28.35;98732.28;4985715;28;20436;-87
2022/08/08 11:07:42;;;;;;;1.30;1.20;;;;;;;27.05;28.26;98722.22;4993090;28;20046;-85
2022/08/08 11:10:28;;;;;;;1.50;1.00;;;;;;;27.22;27.45;98714.44;4990226;28;20125;-85
2022/08/08 11:12:58;;;;;;;0.90;0.90;;;;;;;27.13;27.32;98706.25;5001110;28;20262;-86
2022/08/08 11:15:46;;;;;;;1.13;1.00;;;;;;;27.21;29.14;98718.22;5009517;28;20531;-87
2022/08/08 11:18:29;;;;;;;1.20;1.00;;;;;;;27.36;28.09;98720.69;5013701;28;20045;-85
2022/08/08 11:21:00;;;;;;;1.02;0.93;;;;;;;27.40;27.67;98715.50;5009122;28;20082;-86
2022/08/08 11:23:42;;;;;;;1.23;1.13;;;;;;;27.41;28.17;98712.53;5007148;28;20048;-87
2022/08/08 11:26:19;;;;;;;1.10;1.00;;;;;;;27.62;28.20;98712.97;5013253;28;20049;-86
2022/08/08 11:29:02;;;;;;;1.88;0.90;;;;;;;27.75;27.54;98695.25;5009956;28;20145;-89
2022/08/08 11:31:47;;;;;;;2.35;1.02;;;;;;;27.78;27.35;98702.75;5009270;28;20041;-88
2022/08/08 11:34:16;;;;;;;1.00;1.00;;;;;;;27.87;28.10;98709.06;5013786;28;20050;-86
2022/08/08 11:36:54;;;;;;;1.08;1.00;;;;;;;27.94;27.12;98708.66;4999175;28;20046;-87
2022/08/08 11:39:25;;;;;;;1.55;1.10;;;;;;;28.07;27.88;98701.66;5001261;28;20058;-89
2022/08/08 11:42:02;;;;;;;0.80;0.80;;;;;;;28.05;29.11;98707.38;5002425;28;20046;-86
2022/08/08 11:44:36;;;;;;;0.80;0.80;;;;;;;28.17;28.43;98704.16;5008440;28;20045;-86
2022/08/08 11:47:03;;;;;;;0.90;0.90;;;;;;;28.16;27.48;98691.78;5012169;28;20084;-88
2022/08/08 11:49:40;;;;;;;2.03;0.90;;;;;;;28.21;26.51;98697.88;5010657;28;20041;-85
2022/08/08 11:52:07;;;;;;;1.67;1.02;;;;;;;28.06;26.86;98700.06;5011499;28;20046;-86
2022/08/08 11:54:44;;;;;;;0.82;0.82;;;;;;;28.18;25.51;98697.66;5005670;28;20043;-89
2022/08/08 11:57:20;;;;;;;1.58;1.13;;;;;;;27.92;26.10;98695.47;5007935;28;20049;-84
2022/08/08 12:00:03;;;;;;;1.13;1.08;;;;;;;27.90;27.31;98696.88;5010566;28;20527;-92
2022/08/08 12:02:47;;;;;;;0.93;0.93;;;;;;;27.91;28.06;98691.19;5011434;28;20042;-83
2022/08/08 12:05:17;;;;;;;0.90;0.90;;;;;;;27.97;27.17;98687.31;5006886;28;20497;-88
2022/08/08 12:07:53;;;;;;;1.23;1.02;;;;;;;27.99;26.21;98692.38;5003110;28;20080;-85
2022/08/08 12:10:29;;;;;;;1.60;1.10;;;;;;;27.91;25.95;98685.81;4987095;28;20137;-85
2022/08/08 12:13:10;;;;;;;1.30;1.15;;;;;;;27.72;26.66;98680.50;4996097;28;20041;-86
2022/08/08 12:15:47;;;;;;;0.93;0.88;;;;;;;27.91;26.28;98682.31;5010691;28;20629;-88
2022/08/08 12:18:25;;;;;;;0.80;0.80;;;;;;;28.07;29.19;98682.78;5006209;28;20056;-87
2022/08/08 12:20:56;;;;;;;1.05;0.90;;;;;;;28.20;27.24;98680.09;4999496;28;20070;-89
2022/08/08 12:23:31;;;;;;;3.60;1.42;;;;;;;28.15;27.01;98669.41;5004335;28;20564;-93
2022/08/08 12:26:22;;;;;;;1.45;0.98;;;;;;;28.37;28.56;98674.13;4973453;28;20069;-89
2022/08/08 12:29:32;;;;;;;1.58;1.10;;;;;;;28.37;27.01;98671.44;4990252;28;20046;-91
2022/08/08 12:32:12;;;;;;;0.95;0.90;;;;;;;28.52;27.79;98664.91;5001142;28;20897;-88
2022/08/08 12:34:56;;;;;;;0.82;0.82;;;;;;;28.60;27.49;98666.88;5012008;28;20045;-85
2022/08/08 12:37:43;;;;;;;0.90;0.90;;;;;;;28.46;26.76;98666.13;4998585;28;20050;-87
2022/08/08 12:40:41;;;;;;;0.95;0.80;;;;;;;28.62;27.38;98661.19;4989436;28;20041;-86
2022/08/08 12:43:34;;;;;;;1.40;1.08;;;;;;;28.74;25.84;98661.47;4974190;28;20065;-86
2022/08/08 12:46:21;;;;;;;2.08;0.85;;;;;;;28.73;27.67;98657.97;4988717;28;20049;-90
2022/08/08 12:48:58;;;;;;;0.80;0.80;;;;;;;28.79;25.75;98655.94;4999879;28;20077;-88
2022/08/08 12:51:49;;;;;;;0.70;0.70;;;;;;;28.74;27.13;98661.47;4972320;28;20062;-87
2022/08/08 12:54:38;;;;;;;0.93;0.82;;;;;;;28.89;25.73;98658.38;4979914;28;20060;-88
2022/08/08 12:57:20;;;;;;;0.80;0.80;;;;;;;28.91;26.00;98658.91;4996891;28;20116;-85
2022/08/08 12:59:50;;;;;;;0.75;0.75;;;;;;;28.93;25.67;98659.41;5008267;28;20069;-86